Time;durP1;ratioP1;P1;durP2;ratioP2;P2;SDS_P1;SDS_P2;PMS_P1;PMS_P2;Temp;Humidity;BMP_temperature;BMP_pressure;BME280_temperature;BME280_humidity;BME280_pressure;Samples;Min_cycle;Max_cycle;Signal;HPM_P1;HPM_P2
2022/10/01 00:00:46;;;;;;;7.90;6.15;;;12.40;99.90;;;;;;5154924;27;20045;-68
2022/10/01 00:03:12;;;;;;;9.35;6.55;;;12.30;99.90;;;;;;5154912;27;20035;-68
2022/10/01 00:05:37;;;;;;;8.43;6.72;;;12.30;99.90;;;;;;5131945;27;20515;-68
2022/10/01 00:08:03;;;;;;;8.10;6.70;;;12.30;99.90;;;;;;5133795;27;20039;-69
2022/10/01 00:10:30;;;;;;;9.13;6.15;;;12.20;99.90;;;;;;5132649;27;20475;-69
2022/10/01 00:12:57;;;;;;;10.00;6.88;;;12.20;99.90;;;;;;5134008;27;20038;-69
2022/10/01 00:15:25;;;;;;;12.02;7.15;;;12.20;99.90;;;;;;5115031;27;20047;-70
2022/10/01 00:17:51;;;;;;;8.23;6.60;;;12.10;99.90;;;;;;5133777;27;20050;-70
2022/10/01 00:20:17;;;;;;;11.80;6.72;;;12.00;99.90;;;;;;5132716;27;20402;-71
2022/10/01 00:22:42;;;;;;;8.82;6.43;;;12.00;99.90;;;;;;5133629;27;20039;-72
2022/10/01 00:25:08;;;;;;;10.32;7.55;;;12.00;99.90;;;;;;5131843;27;20046;-72
2022/10/01 00:27:34;;;;;;;8.63;6.38;;;11.90;99.90;;;;;;5132110;27;20039;-71
2022/10/01 00:30:02;;;;;;;9.77;7.30;;;11.80;99.90;;;;;;5132182;27;20031;-71
2022/10/01 00:32:31;;;;;;;11.32;7.30;;;11.90;99.90;;;;;;5132074;27;20047;-71
2022/10/01 00:34:58;;;;;;;8.68;7.57;;;11.90;99.90;;;;;;5133081;27;20066;-71
2022/10/01 00:37:23;;;;;;;9.13;7.70;;;11.90;99.90;;;;;;5132046;27;20398;-71
2022/10/01 00:39:49;;;;;;;10.52;7.63;;;11.90;99.90;;;;;;5133275;27;20039;-71
2022/10/01 00:42:24;;;;;;;9.57;6.80;;;11.80;99.90;;;;;;5133159;27;20061;-71
2022/10/01 00:44:50;;;;;;;23.73;6.93;;;11.80;99.90;;;;;;5133127;27;20039;-71
2022/10/01 00:47:32;;;;;;;9.77;6.63;;;11.80;99.90;;;;;;5131957;27;20566;-71
2022/10/01 00:50:01;;;;;;;10.98;7.05;;;11.70;99.90;;;;;;5133221;27;20053;-71
2022/10/01 00:52:31;;;;;;;9.93;7.18;;;11.70;99.90;;;;;;5133420;27;20049;-72
2022/10/01 00:55:19;;;;;;;9.18;7.35;;;11.70;99.90;;;;;;5113546;27;20039;-71
2022/10/01 00:57:45;;;;;;;12.20;7.60;;;11.70;99.90;;;;;;5133210;27;20050;-72
2022/10/01 01:00:12;;;;;;;11.68;7.60;;;11.60;99.90;;;;;;5132814;27;20043;-72
2022/10/01 01:02:39;;;;;;;12.27;7.43;;;11.60;99.90;;;;;;5131747;27;20047;-72
2022/10/01 01:05:07;;;;;;;9.18;7.43;;;11.60;99.90;;;;;;5132714;27;20081;-72
2022/10/01 01:07:33;;;;;;;10.23;7.53;;;11.60;99.90;;;;;;5144058;27;20047;-72
2022/10/01 01:09:59;;;;;;;11.18;7.68;;;11.60;99.90;;;;;;5153507;27;20062;-72
2022/10/01 01:12:53;;;;;;;12.20;8.02;;;11.50;99.90;;;;;;5152309;27;20031;-73
2022/10/01 01:15:36;;;;;;;12.15;7.70;;;11.60;99.90;;;;;;5153097;27;20045;-72
2022/10/01 01:18:31;;;;;;;10.00;8.13;;;11.50;99.90;;;;;;5153695;27;20053;-72
2022/10/01 01:21:08;;;;;;;11.48;8.40;;;11.50;99.90;;;;;;5153436;27;20390;-72
2022/10/01 01:23:51;;;;;;;12.40;8.07;;;11.50;99.90;;;;;;5153318;27;20051;-72
2022/10/01 01:26:30;;;;;;;12.27;8.82;;;11.50;99.90;;;;;;5152157;27;20039;-72
2022/10/01 01:29:20;;;;;;;11.20;8.80;;;11.50;99.90;;;;;;5152144;27;20034;-71
2022/10/01 01:31:47;;;;;;;10.52;8.65;;;11.60;99.90;;;;;;5153243;27;20027;-72
2022/10/01 01:34:19;;;;;;;13.65;8.90;;;11.50;99.90;;;;;;5151994;27;20413;-72
2022/10/01 01:36:48;;;;;;;13.38;8.57;;;11.50;99.90;;;;;;5151938;27;20047;-72
2022/10/01 01:39:15;;;;;;;11.07;8.45;;;11.50;99.90;;;;;;5151855;27;20038;-72
2022/10/01 01:41:48;;;;;;;11.30;8.40;;;11.50;99.90;;;;;;5151919;27;20043;-71
2022/10/01 01:44:18;;;;;;;11.77;9.45;;;11.50;99.90;;;;;;5152868;27;20038;-71
2022/10/01 01:46:48;;;;;;;12.10;8.73;;;11.50;99.90;;;;;;5151799;27;20539;-71
2022/10/01 01:49:16;;;;;;;13.30;9.30;;;11.40;99.90;;;;;;5152160;27;20398;-72
2022/10/01 01:51:52;;;;;;;10.68;8.25;;;11.50;99.90;;;;;;5151884;27;20035;-72
2022/10/01 01:54:19;;;;;;;13.32;9.43;;;11.50;99.90;;;;;;5151542;27;20095;-72
2022/10/01 01:56:44;;;;;;;12.52;8.52;;;11.50;99.90;;;;;;5134416;27;20049;-72
2022/10/01 01:59:12;;;;;;;11.15;9.27;;;11.50;99.90;;;;;;5152896;27;20114;-72
2022/10/01 02:01:39;;;;;;;12.38;9.05;;;11.40;99.90;;;;;;5153121;27;20038;-72
2022/10/01 02:04:10;;;;;;;11.20;8.40;;;11.40;99.90;;;;;;5152746;27;20486;-71
2022/10/01 02:07:27;;;;;;;11.43;8.60;;;11.40;99.90;;;;;;5154591;27;20405;-72
2022/10/01 02:10:11;;;;;;;11.15;8.77;;;11.40;99.90;;;;;;5131867;27;20051;-72
2022/10/01 02:13:11;;;;;;;14.05;8.55;;;11.40;99.90;;;;;;5157038;27;20043;-71
2022/10/01 02:15:58;;;;;;;10.82;8.77;;;11.40;99.90;;;;;;5085377;27;20049;-71
2022/10/01 02:18:28;;;;;;;11.25;9.27;;;11.40;99.90;;;;;;5156908;27;20039;-71
2022/10/01 02:21:17;;;;;;;11.98;8.55;;;11.40;99.90;;;;;;5155433;27;20044;-71
2022/10/01 02:23:53;;;;;;;10.60;8.50;;;11.40;99.90;;;;;;5155146;27;20122;-72
2022/10/01 02:26:21;;;;;;;9.98;8.55;;;11.40;99.90;;;;;;5138127;27;20089;-71
2022/10/01 02:28:51;;;;;;;10.05;8.70;;;11.30;99.90;;;;;;5155485;27;20692;-71
2022/10/01 02:31:19;;;;;;;11.00;7.97;;;11.40;99.90;;;;;;5155456;27;20030;-72
2022/10/01 02:33:45;;;;;;;14.95;8.20;;;11.40;99.90;;;;;;5155129;27;20039;-72
2022/10/01 02:36:13;;;;;;;10.50;8.18;;;11.20;99.90;;;;;;5156147;27;20080;-71
2022/10/01 02:38:41;;;;;;;10.23;8.15;;;11.30;99.90;;;;;;5156470;27;20081;-71
2022/10/01 02:41:11;;;;;;;9.55;7.82;;;11.30;99.90;;;;;;5155279;27;20541;-70
2022/10/01 02:43:50;;;;;;;9.32;7.63;;;11.30;99.90;;;;;;5155059;27;20034;-70
2022/10/01 02:46:22;;;;;;;9.45;7.78;;;11.40;99.90;;;;;;5156147;27;20402;-70
2022/10/01 02:48:49;;;;;;;8.63;7.28;;;11.40;99.90;;;;;;5154937;27;20042;-70
2022/10/01 02:51:51;;;;;;;9.05;7.93;;;11.50;99.90;;;;;;5154857;27;20037;-69
2022/10/01 02:54:25;;;;;;;9.35;7.70;;;11.50;99.90;;;;;;5124263;27;20047;-69
2022/10/01 02:59:35;;;;;;;8.75;6.78;;;11.40;99.90;;;;;;5154630;27;20042;-69
2022/10/01 03:02:01;;;;;;;8.30;6.65;;;11.50;99.90;;;;;;5155016;27;20519;-68
2022/10/01 03:04:26;;;;;;;11.60;6.82;;;11.50;99.90;;;;;;5154249;27;20049;-69
2022/10/01 03:06:52;;;;;;;8.73;6.55;;;11.40;99.90;;;;;;5155626;27;20525;-69
2022/10/01 03:09:18;;;;;;;8.13;6.97;;;11.50;99.90;;;;;;5155778;27;20091;-69
2022/10/01 03:11:43;;;;;;;7.95;6.35;;;11.50;99.90;;;;;;5155695;27;20494;-69
2022/10/01 03:14:09;;;;;;;7.78;6.28;;;11.50;99.90;;;;;;5155603;27;20163;-69
2022/10/01 03:16:35;;;;;;;8.65;6.55;;;11.50;99.90;;;;;;5155642;27;20095;-69
2022/10/01 03:19:01;;;;;;;7.10;5.90;;;11.50;99.90;;;;;;5155334;27;20117;-69
2022/10/01 03:21:27;;;;;;;6.75;6.05;;;11.50;99.90;;;;;;5155628;27;20034;-69
2022/10/01 03:23:52;;;;;;;7.13;6.28;;;11.60;99.90;;;;;;5155296;27;20041;-69
2022/10/01 03:26:18;;;;;;;6.63;5.85;;;11.60;99.90;;;;;;5155185;27;20049;-69
2022/10/01 03:28:43;;;;;;;5.80;5.20;;;11.50;99.90;;;;;;5155452;27;20038;-69
2022/10/01 03:31:10;;;;;;;5.75;5.25;;;11.50;99.90;;;;;;5155522;27;20038;-69
2022/10/01 03:33:35;;;;;;;6.10;5.50;;;11.50;99.90;;;;;;5155421;27;20034;-69
2022/10/01 03:36:02;;;;;;;5.70;5.13;;;11.50;99.90;;;;;;5154958;27;20057;-69
2022/10/01 03:38:28;;;;;;;6.25;5.55;;;11.50;99.90;;;;;;5155331;27;20053;-69
2022/10/01 03:40:54;;;;;;;5.60;5.03;;;11.50;99.90;;;;;;5155111;27;20035;-69
2022/10/01 03:43:19;;;;;;;5.63;5.07;;;11.50;99.90;;;;;;5155356;27;20410;-69
2022/10/01 03:45:45;;;;;;;5.10;4.60;;;11.50;99.90;;;;;;5154576;27;20517;-69
2022/10/01 03:48:11;;;;;;;7.70;5.43;;;11.50;99.90;;;;;;5155243;27;20402;-69
2022/10/01 03:50:36;;;;;;;6.40;5.13;;;11.50;99.90;;;;;;5155073;27;20448;-69
2022/10/01 03:53:02;;;;;;;7.63;4.97;;;11.50;99.90;;;;;;5154960;27;20038;-69
2022/10/01 03:55:27;;;;;;;5.88;4.75;;;11.50;99.90;;;;;;5154526;27;20087;-69
2022/10/01 03:57:53;;;;;;;5.18;4.70;;;11.50;99.90;;;;;;5154756;27;20038;-69
2022/10/01 04:00:18;;;;;;;6.10;4.85;;;11.50;99.90;;;;;;5154737;27;20037;-69
2022/10/01 04:02:44;;;;;;;6.57;4.93;;;11.50;99.90;;;;;;5154795;27;20034;-69
2022/10/01 04:05:11;;;;;;;5.80;4.55;;;11.40;99.90;;;;;;5154425;27;20448;-69
2022/10/01 04:07:36;;;;;;;4.97;4.55;;;11.50;99.90;;;;;;5136084;27;20053;-69
2022/10/01 04:10:03;;;;;;;5.28;4.78;;;11.40;99.90;;;;;;5154533;27;20498;-69
2022/10/01 04:12:28;;;;;;;6.03;4.60;;;11.50;99.90;;;;;;5154835;27;20402;-69
2022/10/01 04:14:54;;;;;;;5.13;4.63;;;11.50;99.90;;;;;;5135549;27;20038;-69
2022/10/01 04:17:19;;;;;;;5.30;4.80;;;11.40;99.90;;;;;;5154628;27;20133;-69
2022/10/01 04:19:45;;;;;;;5.53;4.57;;;11.40;99.90;;;;;;5153280;27;20037;-69
2022/10/01 04:22:10;;;;;;;4.78;4.28;;;11.50;99.90;;;;;;5154436;27;20095;-68
2022/10/01 04:24:36;;;;;;;5.30;4.80;;;11.50;99.90;;;;;;5153981;27;20031;-69
2022/10/01 04:27:01;;;;;;;4.75;4.35;;;11.50;99.90;;;;;;5152941;27;20081;-69
2022/10/01 04:29:27;;;;;;;4.90;4.38;;;11.50;99.90;;;;;;5153376;27;20039;-69
2022/10/01 04:31:53;;;;;;;4.50;4.10;;;11.60;99.90;;;;;;5154232;27;20039;-69
2022/10/01 04:34:50;;;;;;;6.65;3.60;;;11.60;99.90;;;;;;5152636;27;20034;-69
2022/10/01 04:37:04;;;;;;;4.80;4.35;;;11.60;99.90;;;;;;5153908;27;20125;-68
2022/10/01 04:39:30;;;;;;;3.67;3.38;;;11.50;99.90;;;;;;5154176;27;20131;-68
2022/10/01 04:41:55;;;;;;;4.30;3.75;;;11.50;99.90;;;;;;5154132;27;20505;-68
2022/10/01 04:44:21;;;;;;;4.05;3.65;;;11.50;99.90;;;;;;5153922;27;20559;-68
2022/10/01 04:46:46;;;;;;;4.10;3.65;;;11.60;99.90;;;;;;5153823;27;20118;-68
2022/10/01 04:49:12;;;;;;;5.43;3.45;;;11.60;99.90;;;;;;5153878;27;20398;-68
2022/10/01 04:51:37;;;;;;;3.60;3.30;;;11.60;99.90;;;;;;5153778;27;20060;-68
2022/10/01 04:54:03;;;;;;;3.92;3.53;;;11.60;99.90;;;;;;5153647;27;20158;-68
2022/10/01 04:56:29;;;;;;;4.25;3.50;;;11.70;99.90;;;;;;5152371;27;20151;-68
2022/10/01 04:58:54;;;;;;;5.05;3.78;;;11.60;99.90;;;;;;5152537;27;20045;-68
2022/10/01 05:01:20;;;;;;;5.05;3.10;;;11.70;99.90;;;;;;5153835;27;20127;-68
2022/10/01 05:03:46;;;;;;;3.50;3.20;;;11.60;99.90;;;;;;5152008;27;20107;-68
2022/10/01 05:06:11;;;;;;;3.90;3.08;;;11.70;99.90;;;;;;5153461;27;20060;-68
2022/10/01 05:08:37;;;;;;;3.53;3.22;;;11.70;99.90;;;;;;5153657;27;20077;-68
2022/10/01 05:11:03;;;;;;;3.13;2.85;;;11.70;99.90;;;;;;5153786;27;20432;-68
2022/10/01 05:13:30;;;;;;;3.53;3.08;;;11.70;99.90;;;;;;5153533;27;20039;-68
2022/10/01 05:15:56;;;;;;;3.38;3.00;;;11.70;99.90;;;;;;5153293;27;20115;-68
2022/10/01 05:18:22;;;;;;;2.90;2.65;;;11.70;99.90;;;;;;5153513;27;20047;-68
2022/10/01 05:20:47;;;;;;;2.72;2.53;;;11.80;99.90;;;;;;5153408;27;20035;-68
2022/10/01 05:23:13;;;;;;;3.35;2.40;;;11.80;99.90;;;;;;5152163;27;20133;-68
2022/10/01 05:25:38;;;;;;;2.72;2.47;;;11.80;99.90;;;;;;5153184;27;20073;-68
2022/10/01 05:28:04;;;;;;;2.83;2.53;;;11.80;99.90;;;;;;5153570;27;20031;-68
2022/10/01 05:30:30;;;;;;;2.80;2.60;;;11.80;99.90;;;;;;5153506;27;20115;-68
2022/10/01 05:32:59;;;;;;;2.70;2.50;;;11.80;99.90;;;;;;5152135;27;20042;-68
2022/10/01 05:35:25;;;;;;;5.53;2.65;;;11.80;99.90;;;;;;5152871;27;20072;-68
2022/10/01 05:37:56;;;;;;;2.88;2.67;;;11.90;99.90;;;;;;5153557;27;20042;-68
2022/10/01 05:40:27;;;;;;;3.33;2.63;;;11.90;99.90;;;;;;5154123;27;20049;-68
2022/10/01 05:42:57;;;;;;;3.15;2.85;;;11.90;99.90;;;;;;5156384;27;20087;-68
2022/10/01 05:45:23;;;;;;;3.53;3.15;;;11.90;99.90;;;;;;5155894;27;20518;-68
2022/10/01 05:47:58;;;;;;;3.08;2.75;;;11.90;99.90;;;;;;5157423;27;20038;-68
2022/10/01 05:50:24;;;;;;;4.55;3.10;;;11.90;99.90;;;;;;5156198;27;20045;-68
2022/10/01 05:52:52;;;;;;;3.20;2.90;;;12.00;99.90;;;;;;5157664;27;20553;-68
2022/10/01 05:55:18;;;;;;;4.13;3.00;;;12.00;99.90;;;;;;5156981;27;20095;-68
2022/10/01 05:57:51;;;;;;;4.55;3.13;;;11.90;99.90;;;;;;5156417;27;20069;-68
2022/10/01 06:00:19;;;;;;;5.15;3.78;;;12.00;99.90;;;;;;5153355;27;20047;-68
2022/10/01 06:02:49;;;;;;;3.45;3.15;;;12.00;99.90;;;;;;5152933;27;20078;-68
2022/10/01 06:05:15;;;;;;;3.85;3.55;;;12.10;99.90;;;;;;5154739;27;20544;-68
2022/10/01 06:07:40;;;;;;;4.18;3.78;;;12.10;99.90;;;;;;5157080;27;20074;-68
2022/10/01 06:10:06;;;;;;;3.67;3.38;;;12.10;99.90;;;;;;5156537;27;20450;-68
2022/10/01 06:12:33;;;;;;;5.35;3.75;;;12.10;99.90;;;;;;5156980;27;20046;-68
2022/10/01 06:14:58;;;;;;;4.63;3.70;;;12.10;99.90;;;;;;5156562;27;20070;-67
2022/10/01 06:17:24;;;;;;;4.00;3.60;;;12.10;99.90;;;;;;5154735;27;20085;-68
2022/10/01 06:19:50;;;;;;;6.15;4.13;;;12.10;99.90;;;;;;5155627;27;20035;-68
2022/10/01 06:22:16;;;;;;;4.55;3.97;;;12.10;99.90;;;;;;5155849;27;20069;-68
2022/10/01 06:24:42;;;;;;;5.53;3.88;;;12.20;99.90;;;;;;5156509;27;20053;-68
2022/10/01 06:27:08;;;;;;;5.43;3.97;;;12.20;99.90;;;;;;5155957;27;20406;-68
2022/10/01 06:29:33;;;;;;;5.07;4.38;;;12.20;99.90;;;;;;5156638;27;20510;-68
2022/10/01 06:31:59;;;;;;;8.35;5.22;;;12.20;99.90;;;;;;5156533;27;20083;-68
2022/10/01 06:34:25;;;;;;;6.60;4.45;;;12.20;99.90;;;;;;5156305;27;20095;-68
2022/10/01 06:36:50;;;;;;;5.90;5.20;;;12.30;99.90;;;;;;5156614;27;20041;-68
2022/10/01 06:39:16;;;;;;;8.07;5.05;;;12.30;99.90;;;;;;5156430;27;20078;-68
2022/10/01 06:41:42;;;;;;;8.00;5.35;;;12.30;99.90;;;;;;5156461;27;20126;-68
2022/10/01 06:44:08;;;;;;;5.95;5.00;;;12.30;99.90;;;;;;5154982;27;20126;-68
2022/10/01 06:46:35;;;;;;;5.78;5.28;;;12.40;99.90;;;;;;5154892;27;20507;-68
2022/10/01 06:49:00;;;;;;;6.88;5.65;;;12.40;99.90;;;;;;5154971;27;20042;-68
2022/10/01 06:54:10;;;;;;;6.10;5.50;;;12.40;99.90;;;;;;5155643;27;20466;-68
2022/10/01 06:56:35;;;;;;;6.18;5.57;;;12.50;99.90;;;;;;5155008;27;20070;-68
2022/10/01 06:59:02;;;;;;;10.85;6.07;;;12.50;99.90;;;;;;5156102;27;20127;-68
2022/10/01 07:01:28;;;;;;;6.85;5.97;;;12.50;99.90;;;;;;5155823;27;20038;-68
2022/10/01 07:03:54;;;;;;;7.45;6.00;;;12.50;99.90;;;;;;5148200;27;20111;-67
2022/10/01 07:06:19;;;;;;;8.13;6.30;;;12.60;99.90;;;;;;5155652;27;20045;-67
2022/10/01 07:08:49;;;;;;;9.10;6.47;;;12.60;99.90;;;;;;5155898;27;20031;-69
2022/10/01 07:11:14;;;;;;;6.30;5.80;;;12.60;99.90;;;;;;5154437;27;20042;-67
2022/10/01 07:13:40;;;;;;;7.07;6.07;;;12.60;99.90;;;;;;5155668;27;20034;-68
2022/10/01 07:16:06;;;;;;;9.20;6.15;;;12.60;99.90;;;;;;5155427;27;20077;-67
2022/10/01 07:18:31;;;;;;;9.32;6.07;;;12.70;99.90;;;;;;5155726;27;20039;-67
2022/10/01 07:20:57;;;;;;;6.75;5.88;;;12.70;99.90;;;;;;5154675;27;20039;-67
2022/10/01 07:23:25;;;;;;;10.10;6.10;;;12.70;99.90;;;;;;5154312;27;20403;-68
2022/10/01 07:25:51;;;;;;;9.18;6.18;;;12.70;99.90;;;;;;5153814;27;20045;-67
2022/10/01 07:28:19;;;;;;;9.45;5.93;;;12.80;99.90;;;;;;5155442;27;20105;-68
2022/10/01 07:30:55;;;;;;;6.70;6.07;;;12.80;99.90;;;;;;5155599;27;20031;-67
2022/10/01 07:33:21;;;;;;;7.25;6.30;;;12.90;99.90;;;;;;5155511;27;20035;-68
2022/10/01 07:35:46;;;;;;;9.95;6.70;;;13.00;99.90;;;;;;5153720;27;20045;-68
2022/10/01 07:38:12;;;;;;;11.80;6.25;;;13.00;99.90;;;;;;5155226;27;20498;-68
2022/10/01 07:40:37;;;;;;;8.65;6.35;;;13.10;99.90;;;;;;5155396;27;20394;-67
2022/10/01 07:43:03;;;;;;;10.68;6.57;;;13.20;99.90;;;;;;5155290;27;20060;-67
2022/10/01 07:45:29;;;;;;;9.82;6.07;;;13.20;99.90;;;;;;5154857;27;20030;-68
2022/10/01 07:47:57;;;;;;;11.68;6.82;;;13.30;99.90;;;;;;5155390;27;20053;-67
2022/10/01 07:50:24;;;;;;;9.00;5.80;;;13.30;99.90;;;;;;5155083;27;20504;-67
2022/10/01 07:52:57;;;;;;;11.93;6.18;;;13.30;99.90;;;;;;5154994;27;20714;-68
2022/10/01 07:55:25;;;;;;;10.88;5.72;;;13.40;99.90;;;;;;5153172;27;20490;-69
2022/10/01 07:57:56;;;;;;;6.60;6.00;;;13.40;99.90;;;;;;5155116;27;20050;-68
2022/10/01 08:00:24;;;;;;;12.52;6.20;;;13.40;99.90;;;;;;5153721;27;20064;-67
2022/10/01 08:02:52;;;;;;;11.88;5.57;;;13.40;99.90;;;;;;5153739;27;20094;-67
2022/10/01 08:05:20;;;;;;;8.40;5.60;;;13.40;99.90;;;;;;5154315;27;20118;-67
2022/10/01 08:07:47;;;;;;;8.80;5.43;;;13.40;99.90;;;;;;5154909;27;20171;-68
2022/10/01 08:10:13;;;;;;;10.05;5.07;;;13.50;99.90;;;;;;5154563;27;20035;-68
2022/10/01 08:12:43;;;;;;;12.88;5.60;;;13.50;99.90;;;;;;5153635;27;20430;-68
2022/10/01 08:15:10;;;;;;;11.05;5.25;;;13.50;99.90;;;;;;5135579;27;20043;-68
2022/10/01 08:17:37;;;;;;;10.00;5.32;;;13.60;99.90;;;;;;5153187;27;20509;-68
2022/10/01 08:20:03;;;;;;;11.45;5.15;;;13.60;99.90;;;;;;5154454;27;20070;-68
2022/10/01 08:22:29;;;;;;;9.85;4.93;;;13.70;99.90;;;;;;5153079;27;20048;-68
2022/10/01 08:24:55;;;;;;;10.63;5.30;;;13.70;99.90;;;;;;5154143;27;20117;-69
2022/10/01 08:27:26;;;;;;;14.80;5.55;;;13.70;99.90;;;;;;5154300;27;20082;-69
2022/10/01 08:29:52;;;;;;;10.00;5.10;;;13.70;99.90;;;;;;5154355;27;20039;-67
2022/10/01 08:32:18;;;;;;;10.50;5.38;;;13.70;99.90;;;;;;5154241;27;20384;-68
2022/10/01 08:34:43;;;;;;;12.55;5.00;;;13.80;99.90;;;;;;5152692;27;20067;-68
2022/10/01 08:37:09;;;;;;;11.18;5.00;;;13.80;99.90;;;;;;5154246;27;20038;-68
2022/10/01 08:39:35;;;;;;;13.82;5.07;;;13.80;99.90;;;;;;5154097;27;20094;-68
2022/10/01 08:42:15;;;;;;;10.95;3.90;;;13.90;99.90;;;;;;5154205;27;20136;-68
2022/10/01 08:44:44;;;;;;;12.57;4.28;;;13.90;99.90;;;;;;5152495;27;20046;-69
2022/10/01 08:47:30;;;;;;;12.63;3.90;;;14.00;99.90;;;;;;5153863;27;20042;-68
2022/10/01 08:50:04;;;;;;;7.22;3.60;;;14.00;99.90;;;;;;5152863;27;20031;-69
2022/10/01 08:52:34;;;;;;;12.18;3.35;;;14.00;99.90;;;;;;5154031;27;20031;-68
2022/10/01 08:55:13;;;;;;;12.32;3.30;;;14.10;99.90;;;;;;5135048;27;20070;-69
2022/10/01 08:57:48;;;;;;;9.07;3.53;;;14.20;99.90;;;;;;5154043;27;20057;-69
2022/10/01 09:00:17;;;;;;;9.65;2.75;;;14.30;99.90;;;;;;5152539;27;20043;-69
2022/10/01 09:02:44;;;;;;;13.38;2.85;;;14.30;99.90;;;;;;5153937;27;20398;-68
2022/10/01 09:05:29;;;;;;;13.80;3.03;;;14.30;99.90;;;;;;5152093;27;20047;-68
2022/10/01 09:08:14;;;;;;;7.10;2.60;;;14.40;99.90;;;;;;5153563;27;20034;-68
2022/10/01 09:10:41;;;;;;;9.52;2.15;;;14.50;99.90;;;;;;5152384;27;20042;-68
2022/10/01 09:13:21;;;;;;;14.98;2.53;;;14.50;99.90;;;;;;5153617;27;20049;-68
2022/10/01 09:15:55;;;;;;;13.48;2.67;;;14.60;99.90;;;;;;5152746;27;20043;-68
2022/10/01 09:18:52;;;;;;;7.47;2.38;;;14.60;99.90;;;;;;5153530;27;20034;-69
2022/10/01 09:21:23;;;;;;;11.82;2.58;;;14.60;99.90;;;;;;5153560;27;20043;-69
2022/10/01 09:24:03;;;;;;;9.90;2.40;;;14.60;99.90;;;;;;5151971;27;20121;-68
2022/10/01 09:26:29;;;;;;;8.70;2.40;;;14.70;99.90;;;;;;5153402;27;20091;-68
2022/10/01 09:28:57;;;;;;;8.73;2.00;;;14.70;99.90;;;;;;5153476;27;20534;-69
2022/10/01 09:31:45;;;;;;;13.00;2.13;;;14.80;99.90;;;;;;5152209;27;20046;-68
2022/10/01 09:34:26;;;;;;;7.40;1.67;;;14.70;99.90;;;;;;5153298;27;20060;-69
2022/10/01 09:37:03;;;;;;;5.93;1.77;;;14.70;99.90;;;;;;5152308;27;20043;-69
2022/10/01 09:39:47;;;;;;;6.65;1.92;;;14.80;99.90;;;;;;5134860;27;20538;-68
2022/10/01 09:42:13;;;;;;;9.10;2.00;;;14.80;99.90;;;;;;5153537;27;20098;-68
2022/10/01 09:44:38;;;;;;;7.45;2.05;;;14.70;99.90;;;;;;5153003;27;20043;-68
2022/10/01 09:47:16;;;;;;;5.05;1.60;;;14.70;99.90;;;;;;5152070;27;20039;-68
2022/10/01 09:49:42;;;;;;;7.43;1.88;;;14.70;99.90;;;;;;5153295;27;20050;-68
2022/10/01 09:52:25;;;;;;;6.65;1.60;;;14.70;99.90;;;;;;5153463;27;20046;-68
2022/10/01 09:55:17;;;;;;;6.82;1.40;;;14.80;99.90;;;;;;5151759;27;20034;-68
2022/10/01 09:57:58;;;;;;;7.65;1.48;;;14.80;99.90;;;;;;5115393;27;20106;-68
2022/10/01 10:00:25;;;;;;;7.38;1.45;;;14.90;99.90;;;;;;5153159;27;20117;-68
2022/10/01 10:02:53;;;;;;;6.32;1.65;;;14.90;99.90;;;;;;5153175;27;20027;-68
2022/10/01 10:05:24;;;;;;;4.78;1.45;;;14.90;99.90;;;;;;5152722;27;20035;-68
2022/10/01 10:08:09;;;;;;;7.10;1.48;;;15.00;99.90;;;;;;5153304;27;20065;-68
2022/10/01 10:10:38;;;;;;;4.38;1.15;;;15.10;99.90;;;;;;5151817;27;20056;-68
2022/10/01 10:13:16;;;;;;;9.13;1.55;;;15.20;99.90;;;;;;5153088;27;20087;-68
2022/10/01 10:15:58;;;;;;;6.97;1.60;;;15.30;99.90;;;;;;5152403;27;20521;-68
2022/10/01 10:18:33;;;;;;;4.57;1.45;;;15.40;99.90;;;;;;5153190;27;20087;-68
2022/10/01 10:21:03;;;;;;;7.43;1.48;;;15.50;99.90;;;;;;5151792;27;20116;-68
2022/10/01 10:23:29;;;;;;;8.52;1.50;;;15.60;99.90;;;;;;5152978;27;20050;-68
2022/10/01 10:26:03;;;;;;;5.85;1.42;;;15.60;99.90;;;;;;5152501;27;20057;-68
2022/10/01 10:28:40;;;;;;;5.07;1.27;;;15.70;99.90;;;;;;5155508;27;20077;-68
2022/10/01 10:31:14;;;;;;;6.88;1.88;;;15.70;99.90;;;;;;5156929;27;20038;-68
2022/10/01 10:33:50;;;;;;;7.32;1.75;;;15.80;99.90;;;;;;5156582;27;20035;-68
2022/10/01 10:36:18;;;;;;;5.15;1.52;;;15.80;99.90;;;;;;5155510;27;20469;-68
2022/10/01 10:38:48;;;;;;;13.02;2.08;;;15.80;99.90;;;;;;5156421;27;20041;-68
2022/10/01 10:41:18;;;;;;;11.23;2.30;;;15.70;99.90;;;;;;5156626;27;20046;-68
2022/10/01 10:43:47;;;;;;;11.20;2.00;;;15.50;99.90;;;;;;5154967;27;20035;-69
2022/10/01 10:46:21;;;;;;;8.45;2.13;;;15.50;99.90;;;;;;5156382;27;20128;-69
2022/10/01 10:48:57;;;;;;;9.55;2.10;;;15.40;99.90;;;;;;5156370;27;20059;-70
2022/10/01 10:51:23;;;;;;;8.48;1.92;;;15.30;99.90;;;;;;5155119;27;20113;-72
2022/10/01 10:53:48;;;;;;;8.48;1.83;;;15.20;99.90;;;;;;5154678;27;20121;-70
2022/10/01 10:56:22;;;;;;;8.57;2.08;;;15.10;99.90;;;;;;5154998;27;20183;-70
2022/10/01 10:58:49;;;;;;;4.28;1.40;;;15.10;99.90;;;;;;5154534;27;20034;-69
2022/10/01 11:01:26;;;;;;;6.43;1.27;;;15.00;99.90;;;;;;5154940;27;20058;-70
2022/10/01 11:03:55;;;;;;;5.95;1.10;;;14.90;99.90;;;;;;5155686;27;20120;-70
2022/10/01 11:06:21;;;;;;;7.63;1.30;;;14.80;99.90;;;;;;5154630;27;20057;-68
2022/10/01 11:09:03;;;;;;;6.22;1.60;;;14.80;99.90;;;;;;5154673;27;20034;-71
2022/10/01 11:11:46;;;;;;;11.63;2.75;;;14.70;99.90;;;;;;5137342;27;20123;-67
2022/10/01 11:14:28;;;;;;;9.73;1.55;;;14.60;99.90;;;;;;5155723;27;20054;-69
2022/10/01 11:17:18;;;;;;;7.32;1.80;;;14.50;99.90;;;;;;5155734;27;20050;-69
2022/10/01 11:20:17;;;;;;;6.53;1.30;;;14.40;99.90;;;;;;5140261;27;20125;-73
2022/10/01 11:23:15;;;;;;;4.60;1.10;;;14.30;99.90;;;;;;5133540;27;20035;-73
2022/10/01 11:26:09;;;;;;;5.65;1.35;;;14.20;99.90;;;;;;5133113;27;20047;-73
2022/10/01 11:29:13;;;;;;;4.13;1.23;;;14.20;99.90;;;;;;5118952;27;20039;-72
2022/10/01 11:32:01;;;;;;;4.32;1.27;;;14.20;99.90;;;;;;5133667;27;20092;-72
2022/10/01 11:34:39;;;;;;;5.85;1.40;;;14.30;99.90;;;;;;5133389;27;20054;-71
2022/10/01 11:37:24;;;;;;;5.43;1.60;;;14.30;99.90;;;;;;5133684;27;20473;-70
2022/10/01 11:39:54;;;;;;;3.85;1.35;;;14.30;99.90;;;;;;5134128;27;20406;-70
2022/10/01 11:42:30;;;;;;;6.35;1.40;;;14.30;99.90;;;;;;5133576;27;20155;-70
2022/10/01 11:45:04;;;;;;;6.70;1.98;;;14.30;99.90;;;;;;5134173;27;20125;-69
2022/10/01 11:47:39;;;;;;;4.97;1.30;;;14.30;99.90;;;;;;5133165;27;20042;-70
2022/10/01 11:50:15;;;;;;;7.53;1.40;;;14.30;99.90;;;;;;5133177;27;20039;-69
2022/10/01 11:52:45;;;;;;;5.97;1.40;;;14.30;99.90;;;;;;5134494;27;20042;-69
2022/10/01 12:01:00;;;;;;;7.13;1.20;;;14.20;99.90;;;;;;5136951;27;20422;-68
2022/10/01 12:03:33;;;;;;;6.57;1.55;;;14.20;99.90;;;;;;5133993;27;20043;-69
2022/10/01 12:05:59;;;;;;;6.15;1.08;;;14.20;99.90;;;;;;5133894;27;20047;-69
2022/10/01 12:08:31;;;;;;;7.57;1.80;;;14.30;99.90;;;;;;5134149;27;20040;-69
2022/10/01 12:11:16;;;;;;;7.97;1.77;;;14.30;99.90;;;;;;5133952;27;20495;-69
2022/10/01 12:13:51;;;;;;;11.05;2.17;;;14.30;99.90;;;;;;5133805;27;20063;-69
2022/10/01 12:16:26;;;;;;;8.25;2.05;;;14.40;99.90;;;;;;5133839;27;20131;-69
2022/10/01 12:19:01;;;;;;;9.50;1.70;;;14.40;99.90;;;;;;5134032;27;20399;-69
2022/10/01 12:21:40;;;;;;;8.75;2.25;;;14.50;99.90;;;;;;5115603;27;20047;-70
2022/10/01 12:24:13;;;;;;;10.50;2.00;;;14.50;99.90;;;;;;5132500;27;20431;-69
2022/10/01 12:27:10;;;;;;;12.88;1.83;;;14.60;99.90;;;;;;5133817;27;20088;-69
2022/10/01 12:29:55;;;;;;;14.43;2.15;;;14.60;99.90;;;;;;5132543;27;20526;-70
2022/10/01 12:32:38;;;;;;;11.27;2.13;;;14.60;99.90;;;;;;5133690;27;20035;-69
2022/10/01 12:35:41;;;;;;;13.32;2.33;;;14.60;99.90;;;;;;5131884;27;20042;-70
2022/10/01 12:38:15;;;;;;;;;;;14.60;99.90;;;;;;5134078;27;20035;-68
2022/10/01 12:41:18;;;;;;;9.73;2.53;;;14.60;99.90;;;;;;5133336;27;19922;-69
2022/10/01 12:43:54;;;;;;;10.55;2.72;;;14.70;99.90;;;;;;5139194;27;20380;-69
2022/10/01 12:46:29;;;;;;;9.55;2.13;;;14.70;99.90;;;;;;5132554;27;20062;-69
2022/10/01 12:49:13;;;;;;;13.48;2.80;;;14.70;99.90;;;;;;5154079;27;20050;-69
2022/10/01 12:51:45;;;;;;;16.48;2.33;;;14.70;99.90;;;;;;5153242;27;20113;-69
2022/10/01 12:54:20;;;;;;;7.38;1.63;;;14.80;99.90;;;;;;5153692;27;20043;-69
2022/10/01 12:57:04;;;;;;;10.70;2.55;;;14.80;99.90;;;;;;5153970;27;20042;-69
2022/10/01 12:59:48;;;;;;;9.68;1.73;;;14.90;99.90;;;;;;5153819;27;20046;-69
2022/10/01 13:02:39;;;;;;;9.00;2.08;;;15.00;99.90;;;;;;5153921;27;20038;-69
2022/10/01 13:05:42;;;;;;;9.15;1.50;;;15.10;99.90;;;;;;5152168;27;20506;-69
2022/10/01 13:08:20;;;;;;;13.13;1.80;;;15.20;99.90;;;;;;5153711;27;20047;-69
2022/10/01 13:10:50;;;;;;;12.65;1.70;;;15.20;99.90;;;;;;5153782;27;20087;-69
2022/10/01 13:13:26;;;;;;;13.40;2.05;;;15.30;99.90;;;;;;5152838;27;20050;-69
2022/10/01 13:16:03;;;;;;;12.50;2.33;;;15.40;99.90;;;;;;5134780;27;20160;-69